Аэропорт: Уральск. Уральск

ICAO: UARR

METAR:
2022-06-26 12:00:00
UARR 261200Z 34006G11MPS 310V030 CAVOK 28/10 Q1011 NOSIG RMK QFE755/1006
METAR:
2022-06-26 11:01:00
TAF UARR 261101Z 2612/2621 34005G13MPS CAVOK BECMG 2616/2617 36004G09MPS